createdAt,value
2023-03-06T00:00:21.139Z,88.75
2023-03-06T00:02:47.784Z,90.48
2023-03-06T00:05:15.191Z,90.13
2023-03-06T00:07:42.260Z,92.67
2023-03-06T00:10:13.442Z,93.58
2023-03-06T00:12:40.017Z,92.87
2023-03-06T00:15:07.395Z,91.59
2023-03-06T00:17:33.830Z,91.94
2023-03-06T00:20:00.378Z,93.28
2023-03-06T00:22:26.989Z,93.04
2023-03-06T00:24:54.506Z,91.85
2023-03-06T00:27:21.528Z,92.67
2023-03-06T00:29:50.632Z,93.51
2023-03-06T00:32:17.207Z,91.15
2023-03-06T00:34:43.775Z,89.70
2023-03-06T00:37:10.308Z,89.55
2023-03-06T00:39:37.068Z,88.94
2023-03-06T00:42:03.714Z,88.79
2023-03-06T00:44:30.230Z,90.89
2023-03-06T00:46:56.786Z,93.10
2023-03-06T00:49:23.365Z,93.19
2023-03-06T00:51:49.907Z,93.50
2023-03-06T00:54:16.475Z,91.08
2023-03-06T00:56:43.026Z,90.76
2023-03-06T00:59:10.678Z,91.39
2023-03-06T01:01:37.314Z,91.04
2023-03-06T01:04:04.256Z,90.27
2023-03-06T01:06:31.176Z,90.00
2023-03-06T01:08:57.770Z,89.54
2023-03-06T01:11:24.396Z,89.52
2023-03-06T01:13:50.910Z,90.34
2023-03-06T01:16:19.452Z,89.44
2023-03-06T01:18:46.268Z,89.37
2023-03-06T01:21:13.085Z,89.63
2023-03-06T01:23:39.911Z,90.07
2023-03-06T01:26:06.843Z,89.76
2023-03-06T01:28:37.402Z,91.20
2023-03-06T01:31:05.625Z,91.40
2023-03-06T01:33:32.247Z,93.46
2023-03-06T01:35:58.854Z,95.15
2023-03-06T01:38:25.466Z,95.73
2023-03-06T01:40:52.037Z,96.56
2023-03-06T01:43:24.409Z,96.67
2023-03-06T01:45:50.936Z,97.09
2023-03-06T01:48:21.309Z,96.32
2023-03-06T01:50:48.728Z,96.06
2023-03-06T01:53:15.580Z,97.69
2023-03-06T01:55:42.462Z,96.96
2023-03-06T01:58:14.666Z,95.99
2023-03-06T02:00:41.231Z,95.79
2023-03-06T02:03:15.790Z,95.94
2023-03-06T02:05:43.771Z,95.21
2023-03-06T02:08:16.233Z,96.58
2023-03-06T02:10:57.410Z,95.83
2023-03-06T02:13:24.226Z,96.64
2023-03-06T02:15:50.827Z,96.49
2023-03-06T02:18:17.480Z,96.31
2023-03-06T02:20:49.022Z,94.54
2023-03-06T02:23:26.662Z,93.96
2023-03-06T02:25:53.991Z,93.52
2023-03-06T02:28:22.275Z,93.59
2023-03-06T02:30:51.986Z,93.46
2023-03-06T02:33:22.063Z,92.80
2023-03-06T02:35:57.669Z,91.42
2023-03-06T02:38:28.486Z,91.18
2023-03-06T02:40:58.001Z,91.71
2023-03-06T02:43:28.979Z,91.79
2023-03-06T02:45:55.557Z,91.43
2023-03-06T02:48:22.260Z,92.38
2023-03-06T02:50:49.313Z,94.05
2023-03-06T02:53:18.409Z,93.40
2023-03-06T02:55:45.478Z,93.81
2023-03-06T02:58:12.536Z,94.78
2023-03-06T03:00:40.239Z,93.57
2023-03-06T03:03:07.960Z,93.59
2023-03-06T03:05:34.487Z,93.42
2023-03-06T03:08:01.122Z,93.40
2023-03-06T03:10:27.751Z,93.19
2023-03-06T03:12:54.575Z,92.19
2023-03-06T03:15:21.159Z,92.28
2023-03-06T03:17:47.727Z,93.81
2023-03-06T03:20:17.090Z,93.21
2023-03-06T03:22:48.033Z,92.45
2023-03-06T03:25:14.611Z,92.26
2023-03-06T03:27:41.259Z,94.14
2023-03-06T03:30:08.978Z,95.89
2023-03-06T03:32:35.717Z,96.08
2023-03-06T03:35:02.625Z,95.25
2023-03-06T03:37:29.203Z,95.40
2023-03-06T03:39:56.471Z,95.52
2023-03-06T03:42:22.993Z,95.77
2023-03-06T03:44:49.528Z,94.46
2023-03-06T03:47:16.070Z,93.13
2023-03-06T03:49:42.793Z,92.64
2023-03-06T03:52:09.300Z,93.49
2023-03-06T03:54:36.626Z,94.14
2023-03-06T03:57:03.336Z,94.00
2023-03-06T03:59:29.918Z,94.18
2023-03-06T04:01:57.187Z,95.86
2023-03-06T04:04:23.627Z,95.32
2023-03-06T04:06:50.135Z,94.12
2023-03-06T04:09:16.715Z,93.72
2023-03-06T04:11:43.229Z,92.69
2023-03-06T04:14:11.472Z,93.16
2023-03-06T04:16:38.031Z,93.73
2023-03-06T04:19:04.542Z,94.46
2023-03-06T04:21:31.153Z,95.63
2023-03-06T04:23:58.580Z,96.46
2023-03-06T04:26:25.342Z,97.44
2023-03-06T04:28:51.936Z,96.78
2023-03-06T04:31:18.504Z,96.52
2023-03-06T04:33:45.012Z,96.79
2023-03-06T04:36:25.380Z,96.47
2023-03-06T04:38:51.965Z,96.21
2023-03-06T04:41:18.546Z,96.10
2023-03-06T04:43:46.221Z,95.92
2023-03-06T04:46:12.878Z,96.41
2023-03-06T04:48:39.404Z,95.66
2023-03-06T04:51:06.294Z,95.48
2023-03-06T04:53:32.965Z,95.71
2023-03-06T04:55:59.686Z,94.84
2023-03-06T04:58:26.245Z,94.55
2023-03-06T05:00:52.846Z,94.75
2023-03-06T05:03:19.426Z,95.00
2023-03-06T05:05:46.089Z,95.62
2023-03-06T05:08:15.284Z,96.62
2023-03-06T05:10:45.443Z,99.48
2023-03-06T05:13:12.100Z,100.00
2023-03-06T05:15:42.075Z,99.73
2023-03-06T05:18:08.648Z,100.00
2023-03-06T05:20:35.230Z,100.00
2023-03-06T05:23:01.756Z,100.00
2023-03-06T05:25:28.314Z,98.51
2023-03-06T05:27:54.869Z,97.77
2023-03-06T05:30:23.174Z,97.83
2023-03-06T05:32:50.307Z,97.53
2023-03-06T05:35:19.658Z,98.26
2023-03-06T05:37:47.094Z,98.31
2023-03-06T05:40:14.910Z,98.35
2023-03-06T05:42:41.827Z,98.77
2023-03-06T05:45:09.123Z,98.80
2023-03-06T05:47:35.764Z,99.10
2023-03-06T05:50:02.326Z,99.64
2023-03-06T05:52:28.872Z,99.11
2023-03-06T05:54:55.406Z,99.32
2023-03-06T05:57:23.761Z,99.16
2023-03-06T05:59:51.015Z,99.12
2023-03-06T06:02:18.111Z,99.69
2023-03-06T06:04:44.872Z,100.00
2023-03-06T06:07:14.992Z,100.00
2023-03-06T06:09:45.415Z,98.94
2023-03-06T06:12:13.529Z,94.64
2023-03-06T06:14:40.226Z,92.04
2023-03-06T06:17:06.823Z,89.13
2023-03-06T06:19:33.475Z,86.94
2023-03-06T06:22:02.653Z,86.30
2023-03-06T06:24:29.974Z,84.69
2023-03-06T06:26:57.122Z,82.58
2023-03-06T06:29:24.217Z,80.76
2023-03-06T06:31:51.255Z,78.44
2023-03-06T06:34:17.844Z,75.44
2023-03-06T06:36:44.438Z,74.57
2023-03-06T06:39:14.686Z,74.83
2023-03-06T06:41:59.788Z,73.23
2023-03-06T06:44:27.952Z,74.26
2023-03-06T06:47:22.405Z,74.94
2023-03-06T06:49:41.030Z,75.24
2023-03-06T06:52:08.061Z,74.89
2023-03-06T06:54:34.817Z,71.47
2023-03-06T06:57:01.373Z,70.68
2023-03-06T06:59:27.944Z,70.93
2023-03-06T07:01:54.517Z,71.01
2023-03-06T07:04:21.136Z,69.86
2023-03-06T07:06:47.771Z,69.45
2023-03-06T07:09:14.609Z,69.76
2023-03-06T07:11:41.684Z,67.06
2023-03-06T07:14:08.348Z,66.12
2023-03-06T07:16:35.045Z,64.75
2023-03-06T07:19:01.609Z,62.46
2023-03-06T07:21:28.224Z,62.95
2023-03-06T07:23:57.303Z,64.00
2023-03-06T07:26:25.316Z,63.38
2023-03-06T07:28:54.489Z,63.60
2023-03-06T07:31:24.447Z,62.52
2023-03-06T07:33:52.830Z,63.05
2023-03-06T07:36:19.912Z,63.39
2023-03-06T07:38:46.679Z,62.43
2023-03-06T07:41:15.322Z,60.71
2023-03-06T07:43:46.173Z,61.63
2023-03-06T07:46:14.462Z,61.68
2023-03-06T07:48:41.743Z,62.41
2023-03-06T07:51:13.478Z,61.58
2023-03-06T07:53:40.245Z,62.12
2023-03-06T07:56:11.183Z,62.05
2023-03-06T07:58:40.804Z,61.16
2023-03-06T08:01:10.333Z,60.93
2023-03-06T08:03:37.546Z,59.28
2023-03-06T08:06:19.909Z,58.11
2023-03-06T08:08:48.188Z,58.41
2023-03-06T08:11:17.122Z,58.23
2023-03-06T08:13:43.882Z,55.05
2023-03-06T08:16:11.129Z,56.54
2023-03-06T08:18:40.784Z,56.35
2023-03-06T08:21:12.859Z,56.19
2023-03-06T08:23:39.975Z,56.08
2023-03-06T08:26:10.554Z,55.05
2023-03-06T08:28:37.190Z,54.15
2023-03-06T08:31:28.656Z,53.83
2023-03-06T08:33:57.440Z,53.42
2023-03-06T08:36:24.212Z,53.20
2023-03-06T08:38:50.816Z,51.43
2023-03-06T08:41:17.374Z,50.65
2023-03-06T08:43:43.997Z,49.65
2023-03-06T08:46:11.359Z,50.50
2023-03-06T08:48:37.870Z,50.65
2023-03-06T08:51:04.641Z,48.15
2023-03-06T08:53:42.522Z,46.58
2023-03-06T08:56:27.886Z,45.30
2023-03-06T08:58:55.260Z,44.24
2023-03-06T09:01:23.256Z,43.99
2023-03-06T09:03:50.548Z,45.36
2023-03-06T09:06:17.545Z,42.18
2023-03-06T09:08:44.701Z,41.20
2023-03-06T09:11:12.452Z,42.46
2023-03-06T09:13:39.090Z,42.58
2023-03-06T09:16:06.948Z,42.20
2023-03-06T09:18:33.472Z,42.01
2023-03-06T09:21:00.118Z,40.15
2023-03-06T09:23:26.693Z,37.63
2023-03-06T09:25:55.411Z,37.58
2023-03-06T09:28:22.296Z,38.10
2023-03-06T09:30:48.911Z,36.63
2023-03-06T09:33:16.342Z,36.14
2023-03-06T09:35:55.830Z,35.58
2023-03-06T09:38:25.412Z,35.82
2023-03-06T09:40:58.136Z,37.11
2023-03-06T09:43:46.989Z,38.08
2023-03-06T09:46:20.356Z,39.74
2023-03-06T09:48:57.039Z,40.97
2023-03-06T09:51:33.820Z,43.38
2023-03-06T09:54:14.302Z,43.58
2023-03-06T09:56:48.907Z,45.13
2023-03-06T09:59:15.422Z,45.50
2023-03-06T10:01:46.066Z,47.01
2023-03-06T10:04:46.126Z,47.10
2023-03-06T10:07:21.026Z,45.61
2023-03-06T10:10:05.718Z,45.00
2023-03-06T10:12:43.213Z,46.27
2023-03-06T10:15:24.146Z,47.50
2023-03-06T10:17:51.020Z,47.10
2023-03-06T10:20:38.485Z,46.83
2023-03-06T10:23:20.836Z,46.95
2023-03-06T10:26:02.720Z,46.98
2023-03-06T10:28:34.414Z,46.63
2023-03-06T10:31:23.221Z,48.13
2023-03-06T10:33:56.064Z,47.00
2023-03-06T10:36:27.267Z,46.00
2023-03-06T10:38:55.595Z,46.97
2023-03-06T10:41:28.406Z,46.92
2023-03-06T10:44:00.955Z,44.81
2023-03-06T10:46:34.926Z,45.77
2023-03-06T10:49:04.457Z,44.87
2023-03-06T10:51:31.456Z,45.72
2023-03-06T10:54:02.246Z,44.18
2023-03-06T10:56:30.554Z,46.03
2023-03-06T10:59:09.034Z,43.52
2023-03-06T11:01:35.843Z,43.77
2023-03-06T11:04:21.207Z,44.20
2023-03-06T11:06:48.383Z,42.88
2023-03-06T11:09:24.214Z,43.51
2023-03-06T11:11:51.814Z,42.97
2023-03-06T11:14:22.913Z,42.66
2023-03-06T11:16:53.792Z,41.55
2023-03-06T11:19:24.074Z,43.06
2023-03-06T11:22:24.950Z,42.95
2023-03-06T11:24:53.885Z,42.87
2023-03-06T11:27:34.816Z,42.65
2023-03-06T11:30:30.990Z,43.19
2023-03-06T11:33:11.878Z,42.76
2023-03-06T11:35:54.541Z,42.96
2023-03-06T11:38:44.704Z,42.28
2023-03-06T11:41:37.944Z,42.95
2023-03-06T11:44:43.513Z,41.23
2023-03-06T11:47:25.926Z,41.88
2023-03-06T11:50:12.476Z,40.21
2023-03-06T11:52:54.006Z,41.03
2023-03-06T11:55:39.208Z,39.09
2023-03-06T11:58:20.804Z,40.96
2023-03-06T12:00:50.701Z,40.04
2023-03-06T12:03:44.589Z,40.15
2023-03-06T12:06:36.626Z,41.09
2023-03-06T12:09:09.193Z,39.73
2023-03-06T12:11:44.286Z,42.37
2023-03-06T12:14:31.464Z,40.61
2023-03-06T12:17:08.777Z,39.11
2023-03-06T12:20:06.068Z,41.24
2023-03-06T12:22:38.464Z,41.11
2023-03-06T12:25:23.221Z,42.81
2023-03-06T12:28:23.514Z,41.95
2023-03-06T12:31:06.925Z,41.45
2023-03-06T12:34:01.486Z,43.13
2023-03-06T12:36:40.124Z,40.91
2023-03-06T12:39:24.600Z,41.56
2023-03-06T12:42:11.509Z,41.57
2023-03-06T12:45:03.008Z,42.38
2023-03-06T12:47:35.122Z,41.35
2023-03-06T12:50:13.650Z,42.22
2023-03-06T12:52:41.738Z,40.06
2023-03-06T12:55:16.646Z,41.07
2023-03-06T12:57:43.374Z,41.35
2023-03-06T13:00:34.671Z,40.64
2023-03-06T13:03:16.078Z,41.29
2023-03-06T13:05:48.567Z,40.09
2023-03-06T13:08:27.271Z,42.10
2023-03-06T13:11:06.725Z,41.83
2023-03-06T13:13:43.126Z,41.54
2023-03-06T13:16:09.596Z,42.30
2023-03-06T13:18:36.189Z,42.50
2023-03-06T13:21:04.435Z,41.48
2023-03-06T13:23:33.964Z,42.12
2023-03-06T13:26:25.255Z,41.55
2023-03-06T13:28:54.033Z,41.17
2023-03-06T13:31:32.840Z,40.57
2023-03-06T13:34:03.357Z,40.05
2023-03-06T13:36:39.400Z,40.67
2023-03-06T13:39:08.634Z,41.12
2023-03-06T13:41:37.697Z,41.75
2023-03-06T13:44:25.868Z,43.51
2023-03-06T13:47:19.377Z,41.28
2023-03-06T13:49:48.437Z,39.06
2023-03-06T13:52:33.723Z,42.33
2023-03-06T13:55:07.991Z,43.00
2023-03-06T13:58:09.151Z,41.93
2023-03-06T14:00:58.930Z,42.07
2023-03-06T14:03:51.142Z,42.38
2023-03-06T14:06:36.134Z,42.46
2023-03-06T14:09:11.905Z,42.34
2023-03-06T14:11:45.960Z,44.37
2023-03-06T14:14:13.097Z,43.71
2023-03-06T14:16:49.856Z,43.68
2023-03-06T14:19:17.776Z,43.32
2023-03-06T14:21:55.893Z,42.93
2023-03-06T14:24:35.120Z,43.51
2023-03-06T14:27:01.949Z,44.17
2023-03-06T14:29:30.257Z,45.03
2023-03-06T14:31:59.681Z,44.06
2023-03-06T14:34:28.917Z,44.83
2023-03-06T14:37:00.066Z,44.61
2023-03-06T14:39:35.512Z,44.64
2023-03-06T14:42:22.438Z,44.65
2023-03-06T14:45:00.075Z,44.26
2023-03-06T14:47:29.999Z,44.41
2023-03-06T14:50:32.799Z,45.28
2023-03-06T14:53:38.115Z,45.83
2023-03-06T14:56:06.817Z,44.42
2023-03-06T14:58:54.170Z,43.51
2023-03-06T15:01:34.247Z,42.73
2023-03-06T15:04:01.982Z,44.71
2023-03-06T15:06:40.362Z,45.44
2023-03-06T15:09:27.796Z,44.75
2023-03-06T15:12:03.312Z,44.16
2023-03-06T15:14:39.404Z,43.96
2023-03-06T15:17:18.267Z,43.93
2023-03-06T15:19:47.076Z,44.23
2023-03-06T15:22:43.188Z,43.33
2023-03-06T15:25:32.230Z,44.53
2023-03-06T15:28:01.887Z,44.09
2023-03-06T15:30:33.938Z,43.46
2023-03-06T15:33:11.308Z,44.05
2023-03-06T15:35:38.512Z,43.70
2023-03-06T15:38:29.947Z,44.20
2023-03-06T15:40:59.065Z,44.05
2023-03-06T15:43:26.117Z,43.90
2023-03-06T15:45:59.147Z,44.08
2023-03-06T15:48:26.154Z,45.11
2023-03-06T15:50:52.821Z,45.02
2023-03-06T15:53:20.402Z,44.70
2023-03-06T15:55:47.260Z,45.21
2023-03-06T15:58:17.252Z,45.40
2023-03-06T16:00:44.378Z,45.53
2023-03-06T16:03:11.391Z,45.74
2023-03-06T16:05:38.663Z,46.23
2023-03-06T16:08:06.320Z,46.43
2023-03-06T16:10:43.846Z,46.55
2023-03-06T16:13:15.173Z,47.22
2023-03-06T16:15:47.813Z,47.94
2023-03-06T16:18:14.638Z,47.97
2023-03-06T16:20:41.749Z,48.33
2023-03-06T16:23:10.661Z,48.31
2023-03-06T16:25:40.213Z,48.50
2023-03-06T16:28:12.633Z,48.68
2023-03-06T16:30:39.196Z,49.58
2023-03-06T16:33:05.915Z,50.26
2023-03-06T16:35:32.580Z,50.30
2023-03-06T16:38:00.161Z,49.91
2023-03-06T16:40:29.873Z,50.28
2023-03-06T16:42:56.711Z,51.15
2023-03-06T16:45:24.612Z,51.40
2023-03-06T16:47:51.502Z,51.45
2023-03-06T16:50:23.831Z,51.53
2023-03-06T16:52:50.623Z,51.81
2023-03-06T16:55:17.314Z,51.94
2023-03-06T16:57:43.947Z,53.62
2023-03-06T17:00:11.471Z,52.01
2023-03-06T17:02:41.670Z,51.98
2023-03-06T17:05:09.644Z,51.78
2023-03-06T17:07:37.467Z,51.97
2023-03-06T17:10:05.810Z,52.05
2023-03-06T17:12:32.394Z,51.87
2023-03-06T17:14:59.002Z,52.16
2023-03-06T17:17:25.530Z,52.01
2023-03-06T17:19:52.216Z,52.88
2023-03-06T17:22:20.037Z,53.50
2023-03-06T17:24:49.984Z,54.04
2023-03-06T17:27:21.316Z,55.08
2023-03-06T17:29:48.341Z,55.96
2023-03-06T17:32:15.216Z,56.78
2023-03-06T17:34:41.942Z,57.20
2023-03-06T17:37:08.514Z,58.00
2023-03-06T17:39:37.379Z,59.03
2023-03-06T17:42:05.242Z,58.47
2023-03-06T17:44:33.266Z,58.79
2023-03-06T17:47:00.036Z,58.91
2023-03-06T17:49:26.987Z,58.94
2023-03-06T17:51:55.032Z,58.52
2023-03-06T17:54:21.639Z,58.29
2023-03-06T17:56:48.596Z,57.94
2023-03-06T17:59:15.186Z,57.58
2023-03-06T18:01:41.793Z,57.17
2023-03-06T18:04:08.392Z,57.41
2023-03-06T18:06:35.024Z,57.23
2023-03-06T18:09:01.875Z,57.14
2023-03-06T18:11:28.985Z,57.44
2023-03-06T18:13:55.515Z,56.93
2023-03-06T18:16:24.148Z,57.05
2023-03-06T18:18:52.862Z,56.53
2023-03-06T18:21:20.224Z,56.35
2023-03-06T18:23:46.699Z,56.01
2023-03-06T18:26:16.450Z,56.17
2023-03-06T18:28:46.414Z,56.09
2023-03-06T18:31:27.687Z,56.04
2023-03-06T18:34:02.648Z,55.97
2023-03-06T18:36:31.836Z,55.60
2023-03-06T18:38:58.845Z,56.12
2023-03-06T18:41:25.578Z,56.18
2023-03-06T18:43:56.810Z,56.17
2023-03-06T18:46:24.508Z,56.25
2023-03-06T18:48:51.178Z,56.57
2023-03-06T18:51:19.340Z,56.37
2023-03-06T18:53:46.084Z,56.01
2023-03-06T18:56:20.723Z,56.04
2023-03-06T18:58:48.288Z,55.98
2023-03-06T19:01:15.067Z,55.96
2023-03-06T19:03:41.976Z,56.53
2023-03-06T19:06:11.378Z,56.68
2023-03-06T19:08:39.571Z,56.91
2023-03-06T19:11:09.494Z,58.06
2023-03-06T19:13:36.138Z,57.13
2023-03-06T19:16:03.486Z,57.89
2023-03-06T19:18:30.300Z,58.05
2023-03-06T19:21:10.704Z,58.59
2023-03-06T19:23:38.017Z,58.64
2023-03-06T19:26:04.847Z,59.83
2023-03-06T19:28:31.423Z,59.50
2023-03-06T19:30:57.961Z,60.23
2023-03-06T19:33:24.612Z,60.33
2023-03-06T19:35:51.487Z,61.01
2023-03-06T19:38:18.012Z,60.80
2023-03-06T19:40:50.886Z,60.85
2023-03-06T19:43:17.513Z,60.71
2023-03-06T19:45:44.591Z,61.51
2023-03-06T19:48:12.540Z,61.64
2023-03-06T19:50:40.134Z,61.04
2023-03-06T19:53:07.872Z,60.84
2023-03-06T19:55:34.845Z,61.23
2023-03-06T19:58:01.622Z,60.72
2023-03-06T20:00:28.619Z,60.96
2023-03-06T20:02:55.991Z,60.76
2023-03-06T20:05:22.672Z,60.95
2023-03-06T20:07:50.126Z,61.13
2023-03-06T20:10:16.870Z,60.63
2023-03-06T20:12:43.620Z,60.73
2023-03-06T20:15:11.848Z,60.88
2023-03-06T20:17:40.533Z,60.17
2023-03-06T20:20:10.819Z,60.16
2023-03-06T20:22:37.661Z,59.61
2023-03-06T20:25:04.798Z,59.32
2023-03-06T20:27:31.352Z,59.60
2023-03-06T20:29:58.061Z,58.64
2023-03-06T20:32:24.622Z,58.56
2023-03-06T20:34:51.337Z,58.74
2023-03-06T20:37:18.114Z,59.65
2023-03-06T20:39:44.765Z,62.93
2023-03-06T20:42:11.417Z,64.90
2023-03-06T20:44:38.027Z,66.60
2023-03-06T20:47:04.666Z,68.32
2023-03-06T20:49:31.285Z,69.30
2023-03-06T20:51:57.816Z,69.91
2023-03-06T20:54:24.615Z,71.11
2023-03-06T20:56:51.177Z,71.75
2023-03-06T20:59:18.083Z,72.40
2023-03-06T21:01:47.982Z,72.07
2023-03-06T21:04:15.151Z,72.25
2023-03-06T21:06:46.295Z,71.83
2023-03-06T21:09:15.882Z,71.33
2023-03-06T21:11:42.876Z,70.14
2023-03-06T21:14:10.844Z,70.38
2023-03-06T21:16:37.468Z,71.12
2023-03-06T21:19:05.144Z,72.62
2023-03-06T21:21:33.758Z,73.68
2023-03-06T21:24:01.262Z,72.58
2023-03-06T21:26:30.153Z,71.91
2023-03-06T21:28:59.002Z,75.39
2023-03-06T21:31:27.195Z,74.85
2023-03-06T21:33:54.202Z,73.90
2023-03-06T21:36:21.971Z,75.44
2023-03-06T21:38:49.681Z,75.36
2023-03-06T21:41:24.786Z,74.28
2023-03-06T21:43:59.861Z,74.72
2023-03-06T21:46:27.632Z,74.99
2023-03-06T21:48:54.710Z,76.90
2023-03-06T21:51:23.727Z,74.53
2023-03-06T21:53:51.385Z,75.29
2023-03-06T21:56:20.296Z,75.09
2023-03-06T21:58:47.145Z,76.28
2023-03-06T22:01:25.860Z,74.81
2023-03-06T22:03:53.109Z,74.96
2023-03-06T22:06:25.437Z,78.12
2023-03-06T22:08:52.389Z,78.08
2023-03-06T22:11:21.050Z,78.80
2023-03-06T22:13:51.393Z,78.76
2023-03-06T22:16:18.412Z,79.53
2023-03-06T22:18:46.668Z,79.86
2023-03-06T22:21:15.383Z,80.63
2023-03-06T22:23:42.267Z,80.63
2023-03-06T22:26:13.684Z,81.96
2023-03-06T22:28:41.631Z,81.15
2023-03-06T22:31:08.161Z,80.26
2023-03-06T22:33:34.924Z,81.73
2023-03-06T22:36:06.087Z,84.25
2023-03-06T22:38:34.990Z,84.73
2023-03-06T22:41:01.940Z,82.68
2023-03-06T22:43:28.517Z,83.42
2023-03-06T22:45:55.202Z,84.27
2023-03-06T22:48:23.039Z,83.86
2023-03-06T22:50:49.633Z,82.94
2023-03-06T22:53:16.178Z,82.69
2023-03-06T22:55:42.728Z,80.65
2023-03-06T22:58:09.243Z,77.65
2023-03-06T23:00:35.786Z,78.03
2023-03-06T23:03:02.311Z,77.87
2023-03-06T23:05:29.606Z,78.65
2023-03-06T23:07:56.180Z,79.80
2023-03-06T23:10:22.808Z,82.67
2023-03-06T23:12:49.316Z,84.14
2023-03-06T23:15:15.867Z,85.79
2023-03-06T23:17:42.565Z,84.83
2023-03-06T23:20:10.248Z,83.76
2023-03-06T23:22:36.802Z,85.49
2023-03-06T23:25:03.602Z,82.83
2023-03-06T23:27:30.222Z,80.47
2023-03-06T23:29:59.044Z,85.33
2023-03-06T23:32:25.858Z,85.53
2023-03-06T23:34:52.527Z,86.30
2023-03-06T23:37:19.104Z,86.60
2023-03-06T23:39:45.726Z,86.78
2023-03-06T23:42:12.246Z,85.03
2023-03-06T23:44:38.808Z,85.64
2023-03-06T23:47:05.519Z,83.09
2023-03-06T23:49:32.076Z,86.56
2023-03-06T23:51:58.722Z,86.10
2023-03-06T23:54:25.375Z,85.79
2023-03-06T23:56:51.914Z,89.09
2023-03-06T23:59:18.483Z,88.54
